sensor_id;sensor_type;location;lat;lon;timestamp;pressure;altitude;pressure_sealevel;temperature;humidity
60433;BME280;46286;48.098;11.590;2023-02-02T00:01:25;95864.28;;;2.83;100.00
60433;BME280;46286;48.098;11.590;2023-02-02T00:03:51;95871.66;;;2.86;100.00
60433;BME280;46286;48.098;11.590;2023-02-02T00:06:18;95866.06;;;2.83;100.00
60433;BME280;46286;48.098;11.590;2023-02-02T00:08:45;95864.63;;;2.87;100.00
60433;BME280;46286;48.098;11.590;2023-02-02T00:11:11;95864.28;;;2.83;100.00
60433;BME280;46286;48.098;11.590;2023-02-02T00:13:38;95869.03;;;2.86;100.00
60433;BME280;46286;48.098;11.590;2023-02-02T00:18:57;95858.91;;;2.78;100.00
60433;BME280;46286;48.098;11.590;2023-02-02T00:21:23;95857.69;;;2.81;100.00
60433;BME280;46286;48.098;11.590;2023-02-02T00:23:49;95860.53;;;2.72;100.00
60433;BME280;46286;48.098;11.590;2023-02-02T00:26:15;95864.94;;;2.72;100.00
60433;BME280;46286;48.098;11.590;2023-02-02T00:28:40;95865.94;;;2.71;100.00
60433;BME280;46286;48.098;11.590;2023-02-02T00:31:06;95866.94;;;2.70;100.00
60433;BME280;46286;48.098;11.590;2023-02-02T00:33:32;95834.75;;;2.71;100.00
60433;BME280;46286;48.098;11.590;2023-02-02T00:35:57;95852.38;;;2.69;100.00
60433;BME280;46286;48.098;11.590;2023-02-02T00:38:23;95859.00;;;2.65;100.00
60433;BME280;46286;48.098;11.590;2023-02-02T00:40:48;95855.97;;;2.68;100.00
60433;BME280;46286;48.098;11.590;2023-02-02T00:43:14;95848.59;;;2.65;100.00
60433;BME280;46286;48.098;11.590;2023-02-02T00:45:40;95851.78;;;2.67;100.00
60433;BME280;46286;48.098;11.590;2023-02-02T00:48:06;95869.41;;;2.65;100.00
60433;BME280;46286;48.098;11.590;2023-02-02T00:50:31;95856.22;;;2.59;100.00
60433;BME280;46286;48.098;11.590;2023-02-02T00:52:57;95870.22;;;2.58;100.00
60433;BME280;46286;48.098;11.590;2023-02-02T00:55:24;95863.44;;;2.57;100.00
60433;BME280;46286;48.098;11.590;2023-02-02T00:57:50;95860.66;;;2.52;100.00
60433;BME280;46286;48.098;11.590;2023-02-02T01:00:18;95855.91;;;2.49;100.00
60433;BME280;46286;48.098;11.590;2023-02-02T01:02:45;95863.13;;;2.47;100.00
60433;BME280;46286;48.098;11.590;2023-02-02T01:05:11;95876.72;;;2.42;100.00
60433;BME280;46286;48.098;11.590;2023-02-02T01:07:38;95872.38;;;2.30;100.00
60433;BME280;46286;48.098;11.590;2023-02-02T01:10:05;95872.44;;;2.23;100.00
60433;BME280;46286;48.098;11.590;2023-02-02T01:12:31;95877.63;;;2.16;100.00
60433;BME280;46286;48.098;11.590;2023-02-02T01:14:57;95876.47;;;2.12;100.00
60433;BME280;46286;48.098;11.590;2023-02-02T01:17:22;95876.88;;;2.09;100.00
60433;BME280;46286;48.098;11.590;2023-02-02T01:19:48;95873.69;;;2.07;100.00
60433;BME280;46286;48.098;11.590;2023-02-02T01:22:13;95879.28;;;2.04;100.00
60433;BME280;46286;48.098;11.590;2023-02-02T01:24:39;95862.94;;;1.97;100.00
60433;BME280;46286;48.098;11.590;2023-02-02T01:27:04;95849.72;;;2.05;100.00
60433;BME280;46286;48.098;11.590;2023-02-02T01:29:30;95860.13;;;2.05;100.00
60433;BME280;46286;48.098;11.590;2023-02-02T01:31:56;95856.09;;;2.09;100.00
60433;BME280;46286;48.098;11.590;2023-02-02T01:34:22;95839.53;;;2.10;100.00
60433;BME280;46286;48.098;11.590;2023-02-02T01:36:47;95851.69;;;2.16;100.00
60433;BME280;46286;48.098;11.590;2023-02-02T01:39:13;95853.44;;;2.22;100.00
60433;BME280;46286;48.098;11.590;2023-02-02T01:41:39;95845.06;;;2.20;100.00
60433;BME280;46286;48.098;11.590;2023-02-02T01:44:49;95835.69;;;2.19;100.00
60433;BME280;46286;48.098;11.590;2023-02-02T01:46:51;95841.63;;;2.27;100.00
60433;BME280;46286;48.098;11.590;2023-02-02T01:49:18;95840.03;;;2.25;100.00
60433;BME280;46286;48.098;11.590;2023-02-02T01:51:52;95844.22;;;2.27;100.00
60433;BME280;46286;48.098;11.590;2023-02-02T01:54:31;95834.03;;;2.32;100.00
60433;BME280;46286;48.098;11.590;2023-02-02T01:57:04;95832.00;;;2.34;100.00
60433;BME280;46286;48.098;11.590;2023-02-02T01:59:31;95825.81;;;2.35;100.00
60433;BME280;46286;48.098;11.590;2023-02-02T02:01:58;95830.38;;;2.39;100.00
60433;BME280;46286;48.098;11.590;2023-02-02T02:04:25;95831.19;;;2.40;100.00
60433;BME280;46286;48.098;11.590;2023-02-02T02:06:52;95819.63;;;2.36;100.00
60433;BME280;46286;48.098;11.590;2023-02-02T02:09:18;95827.56;;;2.41;100.00
60433;BME280;46286;48.098;11.590;2023-02-02T02:11:44;95830.75;;;2.43;100.00
60433;BME280;46286;48.098;11.590;2023-02-02T02:14:10;95826.34;;;2.43;100.00
60433;BME280;46286;48.098;11.590;2023-02-02T02:25:41;95839.56;;;2.42;100.00
60433;BME280;46286;48.098;11.590;2023-02-02T02:39:16;95825.16;;;2.46;100.00
60433;BME280;46286;48.098;11.590;2023-02-02T02:41:48;95819.78;;;2.41;100.00
60433;BME280;46286;48.098;11.590;2023-02-02T02:44:16;95831.94;;;2.47;100.00
60433;BME280;46286;48.098;11.590;2023-02-02T02:46:43;95833.09;;;2.51;100.00
60433;BME280;46286;48.098;11.590;2023-02-02T02:49:11;95826.31;;;2.50;100.00
60433;BME280;46286;48.098;11.590;2023-02-02T02:51:48;95812.31;;;2.51;100.00
60433;BME280;46286;48.098;11.590;2023-02-02T02:54:19;95819.09;;;2.52;100.00
60433;BME280;46286;48.098;11.590;2023-02-02T02:59:45;95825.16;;;2.46;100.00
60433;BME280;46286;48.098;11.590;2023-02-02T03:02:34;95811.09;;;2.54;100.00
60433;BME280;46286;48.098;11.590;2023-02-02T03:08:24;95819.09;;;2.52;100.00
60433;BME280;46286;48.098;11.590;2023-02-02T03:10:51;95818.31;;;2.52;100.00
60433;BME280;46286;48.098;11.590;2023-02-02T03:13:17;95816.50;;;2.52;100.00
60433;BME280;46286;48.098;11.590;2023-02-02T03:15:44;95822.88;;;2.56;100.00
60433;BME280;46286;48.098;11.590;2023-02-02T03:18:11;95815.06;;;2.56;100.00
60433;BME280;46286;48.098;11.590;2023-02-02T03:20:38;95821.28;;;2.55;100.00
60433;BME280;46286;48.098;11.590;2023-02-02T03:23:04;95829.50;;;2.52;100.00
60433;BME280;46286;48.098;11.590;2023-02-02T03:25:30;95805.53;;;2.50;100.00
60433;BME280;46286;48.098;11.590;2023-02-02T03:27:57;95821.53;;;2.47;100.00
60433;BME280;46286;48.098;11.590;2023-02-02T03:30:23;95842.69;;;2.51;100.00
60433;BME280;46286;48.098;11.590;2023-02-02T03:32:49;95816.34;;;2.47;100.00
60433;BME280;46286;48.098;11.590;2023-02-02T03:35:16;95843.47;;;2.51;100.00
60433;BME280;46286;48.098;11.590;2023-02-02T03:37:42;95842.38;;;2.34;100.00
60433;BME280;46286;48.098;11.590;2023-02-02T03:40:08;95833.25;;;2.24;100.00
60433;BME280;46286;48.098;11.590;2023-02-02T03:42:34;95837.94;;;2.09;100.00
60433;BME280;46286;48.098;11.590;2023-02-02T03:44:59;95839.19;;;2.00;100.00
60433;BME280;46286;48.098;11.590;2023-02-02T03:47:28;95830.78;;;2.04;100.00
60433;BME280;46286;48.098;11.590;2023-02-02T03:49:54;95842.94;;;2.04;100.00
60433;BME280;46286;48.098;11.590;2023-02-02T03:52:20;95837.75;;;2.04;100.00
60433;BME280;46286;48.098;11.590;2023-02-02T03:54:45;95838.94;;;2.08;100.00
60433;BME280;46286;48.098;11.590;2023-02-02T03:57:11;95828.13;;;2.11;100.00
60433;BME280;46286;48.098;11.590;2023-02-02T03:59:36;95830.91;;;2.16;100.00
60433;BME280;46286;48.098;11.590;2023-02-02T04:02:02;95848.66;;;2.19;100.00
60433;BME280;46286;48.098;11.590;2023-02-02T04:04:28;95851.59;;;2.30;100.00
60433;BME280;46286;48.098;11.590;2023-02-02T04:06:53;95844.84;;;2.29;100.00
60433;BME280;46286;48.098;11.590;2023-02-02T04:09:19;95836.03;;;2.30;100.00
60433;BME280;46286;48.098;11.590;2023-02-02T04:11:44;95834.44;;;2.29;100.00
60433;BME280;46286;48.098;11.590;2023-02-02T04:14:10;95847.59;;;2.34;100.00
60433;BME280;46286;48.098;11.590;2023-02-02T04:16:35;95838.78;;;2.35;100.00
60433;BME280;46286;48.098;11.590;2023-02-02T04:19:03;95835.19;;;2.36;100.00
60433;BME280;46286;48.098;11.590;2023-02-02T04:21:29;95845.53;;;2.42;100.00
60433;BME280;46286;48.098;11.590;2023-02-02T04:23:55;95852.72;;;2.47;100.00
60433;BME280;46286;48.098;11.590;2023-02-02T04:26:21;95855.03;;;2.55;100.00
60433;BME280;46286;48.098;11.590;2023-02-02T04:28:50;95845.09;;;2.52;100.00
60433;BME280;46286;48.098;11.590;2023-02-02T04:31:16;95855.03;;;2.55;100.00
60433;BME280;46286;48.098;11.590;2023-02-02T04:33:41;95854.63;;;2.58;100.00
60433;BME280;46286;48.098;11.590;2023-02-02T04:36:07;95843.47;;;2.51;100.00
60433;BME280;46286;48.098;11.590;2023-02-02T04:38:33;95859.66;;;2.53;100.00
60433;BME280;46286;48.098;11.590;2023-02-02T04:41:05;95875.84;;;2.55;100.00
60433;BME280;46286;48.098;11.590;2023-02-02T04:43:32;95862.16;;;2.41;100.00
60433;BME280;46286;48.098;11.590;2023-02-02T04:45:58;95852.75;;;2.40;100.00
60433;BME280;46286;48.098;11.590;2023-02-02T04:48:24;95840.41;;;2.36;100.00
60433;BME280;46286;48.098;11.590;2023-02-02T04:50:49;95838.75;;;2.41;100.00
60433;BME280;46286;48.098;11.590;2023-02-02T04:53:15;95843.91;;;2.48;100.00
60433;BME280;46286;48.098;11.590;2023-02-02T04:55:40;95853.50;;;2.48;100.00
60433;BME280;46286;48.098;11.590;2023-02-02T04:58:06;95850.69;;;2.49;100.00
60433;BME280;46286;48.098;11.590;2023-02-02T05:00:31;95838.03;;;2.59;100.00
60433;BME280;46286;48.098;11.590;2023-02-02T05:02:57;95838.22;;;2.65;100.00
60433;BME280;46286;48.098;11.590;2023-02-02T05:05:22;95847.75;;;2.71;100.00
60433;BME280;46286;48.098;11.590;2023-02-02T05:07:48;95841.78;;;2.70;100.00
60433;BME280;46286;48.098;11.590;2023-02-02T05:10:13;95847.75;;;2.71;100.00
60433;BME280;46286;48.098;11.590;2023-02-02T05:12:39;95876.91;;;2.73;100.00
60433;BME280;46286;48.098;11.590;2023-02-02T05:15:05;95872.16;;;2.70;100.00
60433;BME280;46286;48.098;11.590;2023-02-02T05:17:31;95872.16;;;2.70;100.00
60433;BME280;46286;48.098;11.590;2023-02-02T05:19:57;95854.97;;;2.69;100.00
60433;BME280;46286;48.098;11.590;2023-02-02T05:22:23;95842.97;;;2.68;100.00
60433;BME280;46286;48.098;11.590;2023-02-02T05:24:48;95868.97;;;2.68;100.00
60433;BME280;46286;48.098;11.590;2023-02-02T05:27:14;95877.34;;;2.70;100.00
60433;BME280;46286;48.098;11.590;2023-02-02T05:29:39;95877.75;;;2.67;100.00
60433;BME280;46286;48.098;11.590;2023-02-02T05:32:05;95870.97;;;2.66;100.00
60433;BME280;46286;48.098;11.590;2023-02-02T05:34:30;95876.59;;;2.63;100.00
60433;BME280;46286;48.098;11.590;2023-02-02T05:36:56;95864.63;;;2.62;100.00
60433;BME280;46286;48.098;11.590;2023-02-02T05:39:21;95882.44;;;2.51;100.00
60433;BME280;46286;48.098;11.590;2023-02-02T05:41:47;95878.28;;;2.50;100.00
60433;BME280;46286;48.098;11.590;2023-02-02T05:44:13;95903.41;;;2.56;100.00
60433;BME280;46286;48.098;11.590;2023-02-02T05:46:39;95860.09;;;2.50;100.00
60433;BME280;46286;48.098;11.590;2023-02-02T05:49:05;95871.91;;;2.46;100.00
60433;BME280;46286;48.098;11.590;2023-02-02T05:51:34;95888.34;;;2.40;100.00
60433;BME280;46286;48.098;11.590;2023-02-02T05:54:01;95863.16;;;2.34;100.00
60433;BME280;46286;48.098;11.590;2023-02-02T05:56:27;95877.34;;;2.31;100.00
60433;BME280;46286;48.098;11.590;2023-02-02T05:58:52;95874.75;;;2.38;100.00
60433;BME280;46286;48.098;11.590;2023-02-02T06:01:19;95851.19;;;2.33;100.00
60433;BME280;46286;48.098;11.590;2023-02-02T06:03:45;95858.72;;;2.41;100.00
60433;BME280;46286;48.098;11.590;2023-02-02T06:06:11;95867.56;;;2.40;100.00
60433;BME280;46286;48.098;11.590;2023-02-02T06:08:37;95880.72;;;2.38;100.00
60433;BME280;46286;48.098;11.590;2023-02-02T06:11:14;95881.69;;;2.44;100.00
60433;BME280;46286;48.098;11.590;2023-02-02T06:13:40;95874.84;;;2.56;100.00
60433;BME280;46286;48.098;11.590;2023-02-02T06:16:07;95888.00;;;2.62;100.00
60433;BME280;46286;48.098;11.590;2023-02-02T06:18:33;95877.44;;;2.56;100.00
60433;BME280;46286;48.098;11.590;2023-02-02T06:20:59;95883.47;;;2.50;100.00
60433;BME280;46286;48.098;11.590;2023-02-02T06:23:25;95881.88;;;2.49;100.00
60433;BME280;46286;48.098;11.590;2023-02-02T06:25:52;95881.03;;;2.55;100.00
60433;BME280;46286;48.098;11.590;2023-02-02T06:28:17;95880.47;;;2.53;100.00
60433;BME280;46286;48.098;11.590;2023-02-02T06:30:43;95877.00;;;2.59;100.00
60433;BME280;46286;48.098;11.590;2023-02-02T06:33:08;95872.25;;;2.56;100.00
60433;BME280;46286;48.098;11.590;2023-02-02T06:35:34;95874.41;;;2.59;100.00
60433;BME280;46286;48.098;11.590;2023-02-02T06:38:00;95876.97;;;2.66;100.00
60433;BME280;46286;48.098;11.590;2023-02-02T06:40:26;95886.41;;;2.60;100.00
60433;BME280;46286;48.098;11.590;2023-02-02T06:42:59;95874.19;;;2.61;100.00
60433;BME280;46286;48.098;11.590;2023-02-02T06:45:26;95881.38;;;2.66;100.00
60433;BME280;46286;48.098;11.590;2023-02-02T06:47:52;95886.97;;;2.63;100.00
60433;BME280;46286;48.098;11.590;2023-02-02T06:50:18;95883.78;;;2.67;100.00
60433;BME280;46286;48.098;11.590;2023-02-02T06:52:48;95881.38;;;2.66;100.00
60433;BME280;46286;48.098;11.590;2023-02-02T06:55:13;95884.38;;;2.63;100.00
60433;BME280;46286;48.098;11.590;2023-02-02T06:57:39;95895.81;;;2.62;100.00
60433;BME280;46286;48.098;11.590;2023-02-02T07:00:05;95911.75;;;2.65;100.00
60433;BME280;46286;48.098;11.590;2023-02-02T07:02:31;95928.94;;;2.66;100.00
60433;BME280;46286;48.098;11.590;2023-02-02T07:04:57;95919.34;;;2.67;100.00
60433;BME280;46286;48.098;11.590;2023-02-02T07:07:22;95918.50;;;2.73;100.00
60433;BME280;46286;48.098;11.590;2023-02-02T07:09:48;95910.13;;;2.71;100.00
60433;BME280;46286;48.098;11.590;2023-02-02T07:12:13;95921.38;;;2.65;100.00
60433;BME280;46286;48.098;11.590;2023-02-02T07:14:39;95903.75;;;2.67;100.00
60433;BME280;46286;48.098;11.590;2023-02-02T07:17:04;95921.72;;;2.68;100.00
60433;BME280;46286;48.098;11.590;2023-02-02T07:19:30;95928.13;;;2.66;100.00
60433;BME280;46286;48.098;11.590;2023-02-02T07:21:56;95923.53;;;2.68;100.00
60433;BME280;46286;48.098;11.590;2023-02-02T07:24:21;95924.50;;;2.73;100.00
60433;BME280;46286;48.098;11.590;2023-02-02T07:26:47;95932.53;;;2.72;100.00
60433;BME280;46286;48.098;11.590;2023-02-02T07:29:12;95930.88;;;2.77;100.00
60433;BME280;46286;48.098;11.590;2023-02-02T07:31:39;95930.47;;;2.81;100.00
60433;BME280;46286;48.098;11.590;2023-02-02T07:34:05;95930.06;;;2.77;100.00
60433;BME280;46286;48.098;11.590;2023-02-02T07:36:31;95928.50;;;2.76;100.00
60433;BME280;46286;48.098;11.590;2023-02-02T07:38:56;95954.06;;;2.79;100.00
60433;BME280;46286;48.098;11.590;2023-02-02T07:41:23;95955.66;;;2.80;100.00
60433;BME280;46286;48.098;11.590;2023-02-02T07:43:49;95950.44;;;2.80;100.00
60433;BME280;46286;48.098;11.590;2023-02-02T07:46:16;95956.06;;;2.77;100.00
60433;BME280;46286;48.098;11.590;2023-02-02T07:48:42;95966.88;;;2.74;100.00
60433;BME280;46286;48.098;11.590;2023-02-02T07:51:11;95949.88;;;2.78;100.00
60433;BME280;46286;48.098;11.590;2023-02-02T07:53:37;95966.47;;;2.77;100.00
60433;BME280;46286;48.098;11.590;2023-02-02T07:56:07;95966.47;;;2.77;100.00
60433;BME280;46286;48.098;11.590;2023-02-02T07:58:33;95968.50;;;2.75;100.00
60433;BME280;46286;48.098;11.590;2023-02-02T08:01:00;65468.63;;;-146.47;100.00
60433;BME280;46286;48.098;11.590;2023-02-02T08:03:26;65468.63;;;-146.47;100.00
60433;BME280;46286;48.098;11.590;2023-02-02T08:05:51;65468.63;;;-146.47;100.00
60433;BME280;46286;48.098;11.590;2023-02-02T08:08:17;65468.63;;;-146.47;100.00
60433;BME280;46286;48.098;11.590;2023-02-02T08:10:49;65468.63;;;-146.47;100.00
60433;BME280;46286;48.098;11.590;2023-02-02T08:13:15;65468.63;;;-146.47;100.00
60433;BME280;46286;48.098;11.590;2023-02-02T08:15:41;65468.63;;;-146.47;100.00
60433;BME280;46286;48.098;11.590;2023-02-02T08:18:06;65468.63;;;-146.47;100.00
60433;BME280;46286;48.098;11.590;2023-02-02T08:20:32;65468.63;;;-146.47;100.00
60433;BME280;46286;48.098;11.590;2023-02-02T08:22:58;65468.63;;;-146.47;100.00
60433;BME280;46286;48.098;11.590;2023-02-02T08:25:24;65468.63;;;-146.47;100.00
60433;BME280;46286;48.098;11.590;2023-02-02T08:27:53;65468.63;;;-146.47;100.00
60433;BME280;46286;48.098;11.590;2023-02-02T08:30:19;65468.63;;;-146.47;100.00
60433;BME280;46286;48.098;11.590;2023-02-02T08:32:45;65468.63;;;-146.47;100.00
60433;BME280;46286;48.098;11.590;2023-02-02T08:35:11;65468.63;;;-146.47;100.00
60433;BME280;46286;48.098;11.590;2023-02-02T08:37:37;65468.63;;;-146.47;100.00
60433;BME280;46286;48.098;11.590;2023-02-02T08:40:03;65468.63;;;-146.47;100.00
60433;BME280;46286;48.098;11.590;2023-02-02T08:42:29;65468.63;;;-146.47;100.00
60433;BME280;46286;48.098;11.590;2023-02-02T08:44:54;65468.63;;;-146.47;100.00
60433;BME280;46286;48.098;11.590;2023-02-02T08:47:20;65468.63;;;-146.47;100.00
60433;BME280;46286;48.098;11.590;2023-02-02T08:49:45;65468.63;;;-146.47;100.00
60433;BME280;46286;48.098;11.590;2023-02-02T08:52:11;65468.63;;;-146.47;100.00
60433;BME280;46286;48.098;11.590;2023-02-02T08:54:37;65468.63;;;-146.47;100.00
60433;BME280;46286;48.098;11.590;2023-02-02T08:57:02;65468.63;;;-146.47;100.00
60433;BME280;46286;48.098;11.590;2023-02-02T08:59:28;65468.63;;;-146.47;100.00
60433;BME280;46286;48.098;11.590;2023-02-02T09:01:53;65468.63;;;-146.47;100.00
60433;BME280;46286;48.098;11.590;2023-02-02T09:04:19;65468.63;;;-146.47;100.00
60433;BME280;46286;48.098;11.590;2023-02-02T09:06:44;65468.63;;;-146.47;100.00
60433;BME280;46286;48.098;11.590;2023-02-02T09:09:13;65468.63;;;-146.47;100.00
60433;BME280;46286;48.098;11.590;2023-02-02T09:11:41;65468.63;;;-146.47;100.00
60433;BME280;46286;48.098;11.590;2023-02-02T09:14:08;65468.63;;;-146.47;100.00
60433;BME280;46286;48.098;11.590;2023-02-02T09:16:35;65468.63;;;-146.47;100.00
60433;BME280;46286;48.098;11.590;2023-02-02T09:19:00;65468.63;;;-146.47;100.00
60433;BME280;46286;48.098;11.590;2023-02-02T09:21:26;65468.63;;;-146.47;100.00
60433;BME280;46286;48.098;11.590;2023-02-02T09:23:52;65468.63;;;-146.47;100.00
60433;BME280;46286;48.098;11.590;2023-02-02T09:26:24;65468.63;;;-146.47;100.00
60433;BME280;46286;48.098;11.590;2023-02-02T09:28:55;65468.63;;;-146.47;100.00
60433;BME280;46286;48.098;11.590;2023-02-02T09:31:21;65468.63;;;-146.47;100.00
60433;BME280;46286;48.098;11.590;2023-02-02T09:33:47;65468.63;;;-146.47;100.00
60433;BME280;46286;48.098;11.590;2023-02-02T09:36:32;65468.63;;;-146.47;100.00
60433;BME280;46286;48.098;11.590;2023-02-02T09:38:58;65468.63;;;-146.47;100.00
60433;BME280;46286;48.098;11.590;2023-02-02T09:44:42;65468.63;;;-146.47;100.00
60433;BME280;46286;48.098;11.590;2023-02-02T09:47:19;65468.63;;;-146.47;100.00
60433;BME280;46286;48.098;11.590;2023-02-02T09:52:20;65468.63;;;-146.47;100.00
60433;BME280;46286;48.098;11.590;2023-02-02T09:54:49;65468.63;;;-146.47;100.00
60433;BME280;46286;48.098;11.590;2023-02-02T09:57:30;65468.63;;;-146.47;100.00
60433;BME280;46286;48.098;11.590;2023-02-02T09:59:57;65468.63;;;-146.47;100.00
60433;BME280;46286;48.098;11.590;2023-02-02T10:02:28;65468.63;;;-146.47;100.00
60433;BME280;46286;48.098;11.590;2023-02-02T10:05:05;65468.63;;;-146.47;100.00
60433;BME280;46286;48.098;11.590;2023-02-02T10:07:37;65468.63;;;-146.47;100.00
60433;BME280;46286;48.098;11.590;2023-02-02T10:10:15;65468.63;;;-146.47;100.00
60433;BME280;46286;48.098;11.590;2023-02-02T10:12:51;65468.63;;;-146.47;100.00
60433;BME280;46286;48.098;11.590;2023-02-02T10:15:25;65468.63;;;-146.47;100.00
60433;BME280;46286;48.098;11.590;2023-02-02T10:23:39;65468.63;;;-146.47;100.00
60433;BME280;46286;48.098;11.590;2023-02-02T10:31:20;65468.63;;;-146.47;100.00
60433;BME280;46286;48.098;11.590;2023-02-02T10:33:56;65468.63;;;-146.47;100.00
60433;BME280;46286;48.098;11.590;2023-02-02T10:39:26;65468.63;;;-146.47;100.00
60433;BME280;46286;48.098;11.590;2023-02-02T10:42:12;65468.63;;;-146.47;100.00
60433;BME280;46286;48.098;11.590;2023-02-02T10:44:48;65468.63;;;-146.47;100.00
60433;BME280;46286;48.098;11.590;2023-02-02T10:47:31;65468.63;;;-146.47;100.00
60433;BME280;46286;48.098;11.590;2023-02-02T10:50:18;65468.63;;;-146.47;100.00
60433;BME280;46286;48.098;11.590;2023-02-02T10:52:51;65468.63;;;-146.47;100.00
60433;BME280;46286;48.098;11.590;2023-02-02T10:55:48;65468.63;;;-146.47;100.00
60433;BME280;46286;48.098;11.590;2023-02-02T11:01:07;65468.63;;;-146.47;100.00
60433;BME280;46286;48.098;11.590;2023-02-02T11:03:37;65468.63;;;-146.47;100.00
60433;BME280;46286;48.098;11.590;2023-02-02T11:06:05;65468.63;;;-146.47;100.00
60433;BME280;46286;48.098;11.590;2023-02-02T11:08:51;65468.63;;;-146.47;100.00
60433;BME280;46286;48.098;11.590;2023-02-02T11:11:22;65468.63;;;-146.47;100.00
60433;BME280;46286;48.098;11.590;2023-02-02T11:16:19;65468.63;;;-146.47;100.00
60433;BME280;46286;48.098;11.590;2023-02-02T11:18:46;65468.63;;;-146.47;100.00
60433;BME280;46286;48.098;11.590;2023-02-02T11:21:32;65468.63;;;-146.47;100.00
60433;BME280;46286;48.098;11.590;2023-02-02T11:23:58;65468.63;;;-146.47;100.00
60433;BME280;46286;48.098;11.590;2023-02-02T11:26:26;65468.63;;;-146.47;100.00
60433;BME280;46286;48.098;11.590;2023-02-02T11:29:04;65468.63;;;-146.47;100.00
60433;BME280;46286;48.098;11.590;2023-02-02T11:31:34;65468.63;;;-146.47;100.00
60433;BME280;46286;48.098;11.590;2023-02-02T11:34:16;65468.63;;;-146.47;100.00
60433;BME280;46286;48.098;11.590;2023-02-02T11:37:12;65468.63;;;-146.47;100.00
60433;BME280;46286;48.098;11.590;2023-02-02T11:39:41;65468.63;;;-146.47;100.00
60433;BME280;46286;48.098;11.590;2023-02-02T11:42:23;65468.63;;;-146.47;100.00
60433;BME280;46286;48.098;11.590;2023-02-02T11:44:55;65468.63;;;-146.47;100.00
60433;BME280;46286;48.098;11.590;2023-02-02T11:47:32;65468.63;;;-146.47;100.00
60433;BME280;46286;48.098;11.590;2023-02-02T11:50:00;65468.63;;;-146.47;100.00
60433;BME280;46286;48.098;11.590;2023-02-02T11:52:29;65468.63;;;-146.47;100.00
60433;BME280;46286;48.098;11.590;2023-02-02T11:54:57;65468.63;;;-146.47;100.00
60433;BME280;46286;48.098;11.590;2023-02-02T11:57:25;65468.63;;;-146.47;100.00
60433;BME280;46286;48.098;11.590;2023-02-02T12:00:14;65468.63;;;-146.47;100.00
60433;BME280;46286;48.098;11.590;2023-02-02T12:02:45;65468.63;;;-146.47;100.00
60433;BME280;46286;48.098;11.590;2023-02-02T12:07:44;65468.63;;;-146.47;100.00
60433;BME280;46286;48.098;11.590;2023-02-02T12:13:03;65468.63;;;-146.47;100.00
60433;BME280;46286;48.098;11.590;2023-02-02T12:21:29;65468.63;;;-146.47;100.00
60433;BME280;46286;48.098;11.590;2023-02-02T12:33:00;65468.63;;;-146.47;100.00
60433;BME280;46286;48.098;11.590;2023-02-02T12:35:43;65468.63;;;-146.47;100.00
60433;BME280;46286;48.098;11.590;2023-02-02T12:41:02;65468.63;;;-146.47;100.00
60433;BME280;46286;48.098;11.590;2023-02-02T12:43:38;65468.63;;;-146.47;100.00
60433;BME280;46286;48.098;11.590;2023-02-02T12:48:38;65468.63;;;-146.47;100.00
60433;BME280;46286;48.098;11.590;2023-02-02T12:51:30;65468.63;;;-146.47;100.00
60433;BME280;46286;48.098;11.590;2023-02-02T12:56:55;65468.63;;;-146.47;100.00
60433;BME280;46286;48.098;11.590;2023-02-02T13:02:56;65468.63;;;-146.47;100.00
60433;BME280;46286;48.098;11.590;2023-02-02T13:08:02;65468.63;;;-146.47;100.00
60433;BME280;46286;48.098;11.590;2023-02-02T13:10:44;65468.63;;;-146.47;100.00
60433;BME280;46286;48.098;11.590;2023-02-02T13:13:18;65468.63;;;-146.47;100.00
60433;BME280;46286;48.098;11.590;2023-02-02T13:16:02;65468.63;;;-146.47;100.00
60433;BME280;46286;48.098;11.590;2023-02-02T13:21:01;65468.63;;;-146.47;100.00
60433;BME280;46286;48.098;11.590;2023-02-02T13:23:32;65468.63;;;-146.47;100.00
60433;BME280;46286;48.098;11.590;2023-02-02T13:26:11;65468.63;;;-146.47;100.00
60433;BME280;46286;48.098;11.590;2023-02-02T13:28:44;65468.63;;;-146.47;100.00
60433;BME280;46286;48.098;11.590;2023-02-02T13:31:21;65468.63;;;-146.47;100.00
60433;BME280;46286;48.098;11.590;2023-02-02T13:34:00;65468.63;;;-146.47;100.00
60433;BME280;46286;48.098;11.590;2023-02-02T13:36:30;65468.63;;;-146.47;100.00
60433;BME280;46286;48.098;11.590;2023-02-02T13:39:17;65468.63;;;-146.47;100.00
60433;BME280;46286;48.098;11.590;2023-02-02T13:41:45;65468.63;;;-146.47;100.00
60433;BME280;46286;48.098;11.590;2023-02-02T13:44:16;65468.63;;;-146.47;100.00
60433;BME280;46286;48.098;11.590;2023-02-02T13:49:17;65468.63;;;-146.47;100.00
60433;BME280;46286;48.098;11.590;2023-02-02T13:51:49;65468.63;;;-146.47;100.00
60433;BME280;46286;48.098;11.590;2023-02-02T14:02:26;65468.63;;;-146.47;100.00
60433;BME280;46286;48.098;11.590;2023-02-02T14:06:01;65468.63;;;-146.47;100.00
60433;BME280;46286;48.098;11.590;2023-02-02T14:09:27;65468.63;;;-146.47;100.00
60433;BME280;46286;48.098;11.590;2023-02-02T14:13:03;65468.63;;;-146.47;100.00
60433;BME280;46286;48.098;11.590;2023-02-02T14:20:02;65468.63;;;-146.47;100.00
60433;BME280;46286;48.098;11.590;2023-02-02T14:23:49;65468.63;;;-146.47;100.00
60433;BME280;46286;48.098;11.590;2023-02-02T14:27:41;65468.63;;;-146.47;100.00
60433;BME280;46286;48.098;11.590;2023-02-02T14:31:26;65468.63;;;-146.47;100.00
60433;BME280;46286;48.098;11.590;2023-02-02T14:46:21;65468.63;;;-146.47;100.00
60433;BME280;46286;48.098;11.590;2023-02-02T14:50:02;65468.63;;;-146.47;100.00
60433;BME280;46286;48.098;11.590;2023-02-02T14:53:28;65468.63;;;-146.47;100.00